Time;durP1;ratioP1;P1;durP2;ratioP2;P2;SDS_P1;SDS_P2;PMS_P1;PMS_P2;Temp;Humidity;BMP_temperature;BMP_pressure;BME280_temperature;BME280_humidity;BME280_pressure;Samples;Min_cycle;Max_cycle;Signal;HPM_P1;HPM_P2
2021/11/02 00:01:41;;;;;;;7.03;1.95;;;;;;;11.31;68.83;98696.88;4980639;28;20026;-96
2021/11/02 00:04:06;;;;;;;4.82;1.55;;;;;;;11.29;68.39;98699.66;4981619;28;20522;-96
2021/11/02 00:06:36;;;;;;;5.50;1.75;;;;;;;11.24;68.12;98703.72;4981075;28;20026;-96
2021/11/02 00:09:05;;;;;;;4.55;1.65;;;;;;;11.20;67.78;98702.38;4979850;28;20035;-96
2021/11/02 00:11:31;;;;;;;6.75;2.00;;;;;;;11.17;68.19;98702.66;4963834;28;20035;-96
2021/11/02 00:14:00;;;;;;;4.00;1.95;;;;;;;11.13;68.19;98701.31;4980560;28;20384;-96
2021/11/02 00:16:26;;;;;;;4.90;1.80;;;;;;;11.10;67.43;98699.81;4983192;28;20051;-96
2021/11/02 00:19:03;;;;;;;4.03;1.63;;;;;;;11.03;67.48;98694.31;4966740;28;20086;-96
2021/11/02 00:21:31;;;;;;;4.90;1.35;;;;;;;10.99;67.70;98697.41;4982385;28;20035;-96
2021/11/02 00:24:10;;;;;;;3.92;1.75;;;;;;;10.93;67.68;98701.44;4982599;28;20019;-96
2021/11/02 00:26:36;;;;;;;7.60;1.65;;;;;;;10.93;67.87;98701.44;4977410;28;20128;-96
2021/11/02 00:29:02;;;;;;;5.63;1.35;;;;;;;10.81;67.18;98700.81;4964615;28;20029;-96
2021/11/02 00:31:28;;;;;;;5.53;1.25;;;;;;;10.81;67.68;98707.88;4964441;28;20082;-96
2021/11/02 00:33:53;;;;;;;6.82;1.27;;;;;;;10.78;67.40;98702.91;4970576;28;20026;-95
2021/11/02 00:36:19;;;;;;;3.58;1.17;;;;;;;10.76;67.86;98707.47;4980832;28;20066;-95
2021/11/02 00:38:44;;;;;;;3.22;1.10;;;;;;;10.79;67.59;98700.16;4974253;28;20050;-96
2021/11/02 00:41:09;;;;;;;8.25;1.58;;;;;;;10.73;67.72;98711.25;4970004;28;20078;-95
2021/11/02 00:43:36;;;;;;;4.18;1.35;;;;;;;10.75;67.51;98713.72;4969485;28;20031;-96
2021/11/02 00:46:01;;;;;;;3.10;1.17;;;;;;;10.65;66.88;98725.09;4968354;28;20022;-96
2021/11/02 00:48:28;;;;;;;3.90;1.52;;;;;;;10.52;67.19;98720.19;4966820;28;20030;-96
2021/11/02 00:50:54;;;;;;;6.45;1.23;;;;;;;10.45;67.28;98713.03;4967035;28;20030;-96
2021/11/02 00:53:20;;;;;;;4.53;1.33;;;;;;;10.44;66.82;98721.88;4966945;28;20023;-96
2021/11/02 00:55:46;;;;;;;1.08;0.93;;;;;;;10.39;66.83;98718.88;4966516;28;20030;-96
2021/11/02 00:58:12;;;;;;;3.85;1.08;;;;;;;10.45;67.16;98723.53;4966353;28;20034;-96
2021/11/02 01:00:38;;;;;;;3.40;1.42;;;;;;;10.38;67.59;98727.69;4965232;28;20026;-96
2021/11/02 01:03:05;;;;;;;6.20;1.50;;;;;;;10.26;66.73;98719.97;4965356;28;20038;-95
2021/11/02 01:05:31;;;;;;;2.15;0.90;;;;;;;10.26;67.34;98727.03;4966077;28;20034;-96
2021/11/02 01:07:57;;;;;;;2.22;1.10;;;;;;;10.23;67.35;98725.53;4965234;28;20026;-96
2021/11/02 01:10:23;;;;;;;5.55;1.10;;;;;;;10.19;66.92;98718.91;4983726;28;20093;-96
2021/11/02 01:12:50;;;;;;;2.92;1.10;;;;;;;10.21;66.73;98726.59;4985605;28;20015;-96
2021/11/02 01:15:21;;;;;;;4.65;1.27;;;;;;;10.16;66.79;98734.09;4985638;28;20035;-96
2021/11/02 01:17:47;;;;;;;3.00;1.20;;;;;;;10.06;66.90;98727.06;4985639;28;20047;-96
2021/11/02 01:20:15;;;;;;;5.57;1.52;;;;;;;10.07;66.88;98730.50;4985426;28;20023;-96
2021/11/02 01:22:42;;;;;;;4.88;1.90;;;;;;;10.07;67.86;98733.13;4985217;28;20042;-96
2021/11/02 01:25:09;;;;;;;4.63;1.65;;;;;;;10.00;66.55;98726.81;4985354;28;20015;-96
2021/11/02 01:27:36;;;;;;;2.85;1.13;;;;;;;10.02;67.28;98728.31;4985513;28;20015;-96
2021/11/02 01:30:04;;;;;;;6.63;1.15;;;;;;;10.01;67.20;98728.47;4985222;28;20011;-96
2021/11/02 01:32:29;;;;;;;3.58;1.20;;;;;;;9.90;67.00;98725.03;4985392;28;20019;-96
2021/11/02 01:34:55;;;;;;;2.35;1.38;;;;;;;9.88;67.03;98726.97;4985257;28;20053;-96
2021/11/02 01:37:20;;;;;;;2.40;1.10;;;;;;;9.82;66.92;98721.47;4985117;28;20011;-96
2021/11/02 01:39:46;;;;;;;2.03;1.13;;;;;;;9.89;66.93;98723.41;4985369;28;20086;-96
2021/11/02 01:42:11;;;;;;;2.00;0.90;;;;;;;9.94;67.55;98725.59;4985153;28;20031;-96
2021/11/02 01:44:37;;;;;;;6.68;1.30;;;;;;;9.91;67.50;98723.25;4985203;28;20015;-96
2021/11/02 01:47:04;;;;;;;5.00;1.17;;;;;;;9.98;67.67;98731.38;4984547;28;20015;-96
2021/11/02 01:49:30;;;;;;;4.07;1.38;;;;;;;9.92;67.70;98728.34;4985187;28;20019;-96
2021/11/02 01:51:55;;;;;;;7.07;1.23;;;;;;;9.98;67.40;98726.13;4984897;28;20042;-96
2021/11/02 01:54:21;;;;;;;2.95;1.20;;;;;;;10.03;67.69;98730.00;4985061;28;20014;-96
2021/11/02 01:56:49;;;;;;;4.78;1.63;;;;;;;10.03;67.66;98729.16;4984915;28;20035;-96
2021/11/02 01:59:15;;;;;;;4.13;1.00;;;;;;;9.96;67.51;98722.84;4984923;28;20019;-96
2021/11/02 02:01:49;;;;;;;4.65;1.20;;;;;;;10.02;67.56;98728.31;4984459;28;20058;-96
2021/11/02 02:04:47;;;;;;;4.07;1.23;;;;;;;10.00;67.46;98722.41;4970724;28;20484;-96
2021/11/02 02:07:41;;;;;;;5.22;0.80;;;;;;;10.05;67.75;98721.97;4970272;28;20061;-96
2021/11/02 02:10:14;;;;;;;3.42;0.90;;;;;;;10.13;67.53;98714.25;4967252;28;20041;-96
2021/11/02 02:13:17;;;;;;;8.48;1.40;;;;;;;10.16;67.52;98711.31;4965978;28;20122;-96
2021/11/02 02:15:51;;;;;;;2.75;1.20;;;;;;;10.11;67.00;98713.53;4951661;28;20050;-96
2021/11/02 02:18:20;;;;;;;3.70;0.90;;;;;;;10.04;67.57;98715.91;4965844;28;20070;-96
2021/11/02 02:21:08;;;;;;;4.32;1.00;;;;;;;10.08;67.36;98716.44;4965073;28;20030;-96
2021/11/02 02:23:49;;;;;;;2.97;0.90;;;;;;;10.01;67.48;98720.59;4963575;28;20031;-96
2021/11/02 02:26:26;;;;;;;3.25;1.13;;;;;;;10.05;67.24;98722.81;4962974;28;20041;-96
2021/11/02 02:28:57;;;;;;;2.85;1.00;;;;;;;10.01;67.64;98717.97;4964165;28;20031;-96
2021/11/02 02:31:23;;;;;;;4.00;1.13;;;;;;;10.03;68.04;98716.03;4964201;28;20031;-96
2021/11/02 02:33:49;;;;;;;3.45;1.02;;;;;;;10.11;68.05;98710.91;4963706;28;20023;-96
2021/11/02 02:36:17;;;;;;;3.75;1.00;;;;;;;10.20;68.43;98717.91;4963471;28;20500;-96
2021/11/02 02:38:45;;;;;;;4.72;1.67;;;;;;;10.24;67.87;98716.66;4963517;28;20089;-96
2021/11/02 02:41:11;;;;;;;3.40;0.65;;;;;;;10.28;67.95;98715.41;4963709;28;20458;-96
2021/11/02 02:43:41;;;;;;;1.83;0.85;;;;;;;10.32;67.72;98719.41;4963125;28;20026;-96
2021/11/02 02:46:09;;;;;;;4.20;0.70;;;;;;;10.30;67.60;98721.38;4963291;28;20102;-96
2021/11/02 02:48:39;;;;;;;3.90;1.17;;;;;;;10.27;69.06;98726.06;4959093;29;20031;-96
2021/11/02 02:51:05;;;;;;;6.20;1.08;;;;;;;10.42;68.35;98722.00;4973271;28;20406;-96
2021/11/02 02:53:32;;;;;;;4.13;1.73;;;;;;;10.52;67.90;98719.34;4943418;29;20445;-96
2021/11/02 02:56:02;;;;;;;3.85;0.85;;;;;;;10.55;68.19;98729.56;4944779;29;20401;-96
2021/11/02 02:58:41;;;;;;;5.47;0.82;;;;;;;10.60;68.00;98718.63;4945327;28;20061;-96
2021/11/02 03:01:11;;;;;;;2.28;0.70;;;;;;;10.61;68.07;98723.72;4961841;28;20027;-96
2021/11/02 03:03:40;;;;;;;2.58;0.60;;;;;;;10.62;67.68;98714.88;4961448;28;20031;-96
2021/11/02 03:06:08;;;;;;;2.05;0.80;;;;;;;10.63;68.06;98718.34;4962786;28;20034;-96
2021/11/02 03:08:34;;;;;;;2.60;0.52;;;;;;;10.61;67.96;98712.41;4980515;28;20022;-96
2021/11/02 03:11:01;;;;;;;2.15;0.68;;;;;;;10.62;67.91;98722.75;4981852;28;20037;-96
2021/11/02 03:13:32;;;;;;;6.47;1.25;;;;;;;10.58;68.29;98712.69;4981957;28;20030;-96
2021/11/02 03:16:05;;;;;;;4.20;0.80;;;;;;;10.62;67.90;98714.88;4981601;28;20037;-96
2021/11/02 05:08:16;;;;;;;2.28;0.68;;;;;;;10.34;67.65;98773.56;4997258;28;20029;-96
2021/11/02 05:49:17;;;;;;;2.50;0.90;;;;;;;10.07;67.98;98788.22;5005829;28;20034;-96
2021/11/02 05:59:42;;;;;;;4.47;2.15;;;;;;;9.98;67.61;98789.88;5002342;28;20061;-96
2021/11/02 06:29:26;;;;;;;2.80;1.02;;;;;;;9.70;67.37;98802.88;5006027;28;20538;-96
2021/11/02 06:32:05;;;;;;;3.00;1.08;;;;;;;9.70;67.55;98799.44;4988012;28;20037;-96
2021/11/02 06:39:56;;;;;;;1.92;0.90;;;;;;;9.62;67.50;98797.50;5010067;28;20153;-96
2021/11/02 07:19:16;;;;;;;2.33;0.70;;;;;;;9.42;68.38;98807.13;4963777;28;20094;-93
2021/11/02 07:22:08;;;;;;;1.23;0.55;;;;;;;9.48;67.71;98803.97;4958125;28;20015;-93
2021/11/02 07:24:47;;;;;;;1.63;0.80;;;;;;;9.49;67.43;98813.47;4952199;29;20452;-92
2021/11/02 08:47:53;;;;;;;4.03;1.15;;;;;;;11.66;66.56;98842.41;4933200;29;20087;-93
2021/11/02 08:50:20;;;;;;;1.88;1.00;;;;;;;11.70;66.39;98835.88;4915556;29;20393;-94
2021/11/02 08:52:52;;;;;;;2.15;1.20;;;;;;;11.76;66.56;98830.00;4915883;29;20028;-93
2021/11/02 08:55:19;;;;;;;1.40;1.20;;;;;;;11.88;66.34;98834.06;4925825;29;20036;-93
2021/11/02 08:57:47;;;;;;;3.38;1.48;;;;;;;12.26;66.78;98831.25;4948714;28;20042;-93
2021/11/02 09:00:14;;;;;;;2.60;1.63;;;;;;;13.17;67.44;98829.94;4939096;29;20027;-94
2021/11/02 09:02:49;;;;;;;2.05;1.45;;;;;;;14.40;65.71;98836.22;4939215;29;20034;-93
2021/11/02 09:05:21;;;;;;;5.13;2.00;;;;;;;15.72;64.62;98833.91;4921297;29;20027;-94
2021/11/02 09:07:47;;;;;;;4.05;1.50;;;;;;;16.79;62.11;98836.44;4933816;29;20103;-94
2021/11/02 09:10:15;;;;;;;2.35;1.00;;;;;;;17.69;60.17;98836.31;4919271;29;20048;-94
2021/11/02 09:12:43;;;;;;;6.45;1.38;;;;;;;18.56;57.75;98830.78;4919588;29;20032;-94
2021/11/02 09:15:10;;;;;;;3.13;1.42;;;;;;;19.17;57.04;98835.44;4919765;29;20035;-94
2021/11/02 09:17:46;;;;;;;9.05;1.23;;;;;;;19.84;52.13;98834.81;4930314;29;20055;-93
2021/11/02 09:20:12;;;;;;;6.40;1.10;;;;;;;19.80;50.85;98835.22;4924839;29;20028;-94
2021/11/02 09:22:41;;;;;;;1.77;0.77;;;;;;;19.92;50.14;98839.94;4938342;29;20028;-93
2021/11/02 09:25:06;;;;;;;3.83;0.90;;;;;;;19.78;50.30;98837.25;4950576;29;20020;-93
2021/11/02 09:27:32;;;;;;;2.63;1.08;;;;;;;19.65;50.63;98836.38;4940113;29;20032;-92
2021/11/02 09:30:00;;;;;;;1.65;0.93;;;;;;;19.63;51.59;98839.28;4942480;29;20034;-93
2021/11/02 09:32:27;;;;;;;1.38;0.73;;;;;;;19.41;51.32;98834.09;4946578;29;20031;-94
2021/11/02 09:34:54;;;;;;;3.08;0.73;;;;;;;18.82;51.55;98837.31;4941533;29;20038;-92
2021/11/02 09:37:37;;;;;;;1.75;0.50;;;;;;;18.67;51.48;98839.22;4931086;29;20032;-94
2021/11/02 09:40:31;;;;;;;2.85;0.40;;;;;;;18.89;52.49;98832.81;4926950;29;20024;-94
2021/11/02 09:43:15;;;;;;;3.85;0.70;;;;;;;19.13;52.24;98842.16;4922838;29;20482;-94
2021/11/02 09:46:22;;;;;;;2.92;0.30;;;;;;;19.19;51.96;98843.19;4926061;29;20043;-95
2021/11/02 09:49:23;;;;;;;1.55;0.50;;;;;;;19.06;51.75;98845.81;4925034;29;20382;-94
2021/11/02 09:52:11;;;;;;;4.50;0.50;;;;;;;19.76;51.36;98847.28;4917148;29;20058;-94
2021/11/02 09:55:16;;;;;;;2.47;0.38;;;;;;;20.58;50.88;98853.28;4925876;29;20023;-95
2021/11/02 09:57:50;;;;;;;3.80;0.40;;;;;;;20.86;47.91;98844.25;4934091;29;20494;-94
2021/11/02 10:00:18;;;;;;;0.63;0.30;;;;;;;22.62;47.05;98846.53;4925396;29;20510;-95
2021/11/02 10:03:21;;;;;;;4.10;0.50;;;;;;;23.06;44.63;98850.81;4933792;29;20028;-96
2021/11/02 10:06:20;;;;;;;0.90;0.20;;;;;;;23.92;44.56;98858.81;4909307;29;20424;-95
2021/11/02 10:08:53;;;;;;;0.90;0.43;;;;;;;23.54;45.00;98855.38;4923138;29;20543;-95
2021/11/02 10:11:37;;;;;;;3.15;0.60;;;;;;;25.09;39.46;98857.22;4924267;29;20057;-95
2021/11/02 10:14:23;;;;;;;3.85;0.52;;;;;;;25.49;40.40;98854.59;4922814;29;20510;-95
2021/11/02 10:16:51;;;;;;;2.50;0.90;;;;;;;24.51;39.98;98858.94;4924275;29;20068;-93
2021/11/02 10:19:45;;;;;;;1.83;0.20;;;;;;;23.73;42.59;98850.78;4918776;29;20024;-95
2021/11/02 10:22:11;;;;;;;7.97;0.52;;;;;;;24.84;41.62;98861.03;4931342;29;20036;-95
2021/11/02 10:24:59;;;;;;;1.58;0.25;;;;;;;24.23;40.48;98864.91;4926267;29;20047;-94
2021/11/02 10:28:02;;;;;;;2.53;0.40;;;;;;;24.38;41.25;98867.97;4926159;29;20070;-94
2021/11/02 10:30:46;;;;;;;3.42;0.82;;;;;;;24.23;40.47;98864.91;4929460;29;20024;-96
2021/11/02 10:33:33;;;;;;;3.00;0.50;;;;;;;23.75;40.80;98861.28;4932522;29;20034;-95
2021/11/02 10:36:12;;;;;;;1.23;0.40;;;;;;;22.94;42.83;98860.59;4931676;29;20027;-95
2021/11/02 10:39:02;;;;;;;2.67;0.52;;;;;;;22.33;43.28;98859.53;4931755;29;20494;-95
2021/11/02 10:41:35;;;;;;;2.10;0.50;;;;;;;22.34;42.87;98859.31;4929918;29;20031;-95
2021/11/02 10:44:16;;;;;;;4.95;0.50;;;;;;;23.26;42.61;98857.78;4919786;29;20031;-96
2021/11/02 10:47:00;;;;;;;3.35;0.82;;;;;;;23.18;41.88;98864.25;4924713;29;20038;-95
2021/11/02 10:49:34;;;;;;;1.58;0.32;;;;;;;23.46;41.61;98861.06;4938324;29;20223;-93
2021/11/02 10:52:05;;;;;;;2.63;0.52;;;;;;;23.50;41.65;98853.34;4935851;29;20034;-96
2021/11/02 10:54:43;;;;;;;;;;;;;;;23.12;41.28;98851.78;4937181;29;20035;-95
2021/11/02 10:57:24;;;;;;;3.67;0.60;;;;;;;23.47;40.93;98861.88;4926362;29;19914;-95
2021/11/02 10:59:50;;;;;;;0.73;0.20;;;;;;;23.72;39.88;98857.19;4936248;29;20035;-95
2021/11/02 11:02:26;;;;;;;2.50;0.28;;;;;;;23.48;41.31;98858.13;4928047;29;20031;-94
2021/11/02 11:05:03;;;;;;;2.42;0.20;;;;;;;23.31;41.68;98853.41;4936572;29;20055;-93
2021/11/02 11:07:40;;;;;;;1.42;0.32;;;;;;;23.47;40.59;98859.19;4936175;29;20494;-94
2021/11/02 11:10:07;;;;;;;2.70;0.30;;;;;;;23.52;42.82;98854.78;4933184;29;20023;-94
2021/11/02 11:12:39;;;;;;;0.98;0.28;;;;;;;23.14;40.97;98871.09;4937355;29;20123;-94
2021/11/02 11:15:06;;;;;;;;;;;;;;;22.42;44.33;98863.56;4918368;29;20032;-94
2021/11/02 11:17:34;;;;;;;3.67;0.50;;;;;;;22.92;42.64;98868.03;4932358;29;19926;-94
2021/11/02 11:20:14;;;;;;;2.10;0.30;;;;;;;22.46;43.26;98864.78;4932507;29;20493;-94
2021/11/02 11:22:47;;;;;;;1.58;0.40;;;;;;;22.62;40.98;98860.72;4936306;29;20471;-95
2021/11/02 11:25:25;;;;;;;1.08;0.20;;;;;;;22.58;44.12;98867.53;4934822;29;20441;-94
2021/11/02 11:27:57;;;;;;;1.13;0.20;;;;;;;22.27;41.87;98863.06;4936188;29;20039;-94
2021/11/02 11:30:35;;;;;;;1.73;0.50;;;;;;;22.16;44.32;98870.75;4936251;29;20043;-94
2021/11/02 11:33:07;;;;;;;0.68;0.20;;;;;;;21.94;43.68;98874.81;4936129;29;20030;-94
2021/11/02 11:35:37;;;;;;;3.33;0.47;;;;;;;22.03;44.54;98865.47;4932254;29;20036;-94
2021/11/02 11:38:07;;;;;;;2.13;0.30;;;;;;;21.67;45.25;98866.94;4916793;29;20024;-94
2021/11/02 11:40:35;;;;;;;1.73;0.30;;;;;;;21.55;45.32;98869.47;4928181;28;20047;-93
2021/11/02 11:43:02;;;;;;;1.40;0.40;;;;;;;21.41;44.61;98875.06;4960188;28;20058;-94
2021/11/02 11:45:30;;;;;;;2.15;0.38;;;;;;;21.75;46.25;98868.53;4946980;28;20054;-94
2021/11/02 11:48:26;;;;;;;2.40;0.40;;;;;;;22.02;45.43;98866.53;4950401;28;20015;-96
2021/11/02 11:50:54;;;;;;;4.03;0.30;;;;;;;21.48;45.23;98870.53;4960259;28;20027;-95
2021/11/02 11:53:21;;;;;;;1.98;0.40;;;;;;;22.09;45.34;98859.25;4942469;28;20027;-94
2021/11/02 11:56:12;;;;;;;1.92;0.40;;;;;;;22.64;45.39;98860.50;4951078;28;20027;-95
2021/11/02 11:58:51;;;;;;;2.80;0.50;;;;;;;22.41;44.30;98855.75;4966465;28;20031;-96
2021/11/02 12:01:21;;;;;;;2.95;0.25;;;;;;;23.17;42.74;98857.28;4960625;28;20071;-96
2021/11/02 12:03:56;;;;;;;1.85;0.20;;;;;;;23.70;41.98;98858.47;4947274;28;20081;-95
2021/11/02 12:06:39;;;;;;;2.53;0.32;;;;;;;23.64;39.98;98864.75;4942354;28;20023;-96
2021/11/02 12:09:15;;;;;;;0.82;0.20;;;;;;;23.27;40.74;98854.09;4943040;28;20004;-96
2021/11/02 12:11:42;;;;;;;4.55;0.40;;;;;;;22.91;40.93;98859.19;4948894;28;20039;-95
2021/11/02 12:14:10;;;;;;;2.17;0.45;;;;;;;22.38;42.63;98849.81;4944456;28;20032;-95
2021/11/02 12:16:42;;;;;;;1.08;0.30;;;;;;;22.25;43.00;98851.78;4946480;28;20083;-96
2021/11/02 12:19:11;;;;;;;1.88;0.50;;;;;;;21.79;42.38;98851.84;4950545;28;20024;-95
2021/11/02 12:21:37;;;;;;;2.10;0.40;;;;;;;21.64;44.09;98845.19;4954148;28;20012;-95
2021/11/02 12:24:12;;;;;;;1.48;0.50;;;;;;;21.18;44.79;98844.34;4948326;28;20020;-95
2021/11/02 12:26:43;;;;;;;1.95;0.30;;;;;;;21.10;45.27;98840.06;4963913;28;20035;-96
2021/11/02 12:29:10;;;;;;;;;;;;;;;21.22;44.47;98844.75;4970408;28;20051;-96
2021/11/02 12:31:37;;;;;;;2.53;0.52;;;;;;;20.95;45.75;98843.00;4973817;28;19946;-94
2021/11/02 12:34:12;;;;;;;2.30;0.45;;;;;;;21.28;45.84;98842.03;4961156;28;20027;-95
2021/11/02 12:36:45;;;;;;;2.60;0.40;;;;;;;20.93;43.86;98837.03;4945987;28;20047;-95
2021/11/02 12:39:10;;;;;;;3.00;0.50;;;;;;;20.73;44.22;98836.25;4951953;28;20087;-95
2021/11/02 12:41:47;;;;;;;1.63;0.35;;;;;;;20.82;45.84;98835.00;4948535;28;20028;-95
2021/11/02 12:44:15;;;;;;;4.20;0.52;;;;;;;20.87;44.28;98832.53;4938730;28;20562;-95
2021/11/02 12:46:47;;;;;;;1.90;0.52;;;;;;;20.87;44.73;98837.03;4939412;29;20035;-96
2021/11/02 12:49:27;;;;;;;2.17;0.50;;;;;;;20.55;45.08;98834.22;4934482;29;20047;-96
2021/11/02 12:52:00;;;;;;;4.95;0.80;;;;;;;20.61;44.28;98836.06;4937270;29;20509;-96
2021/11/02 12:54:26;;;;;;;4.28;0.70;;;;;;;20.77;43.91;98834.81;4915514;29;20040;-95
2021/11/02 12:56:57;;;;;;;2.75;0.82;;;;;;;20.89;43.83;98829.66;4922274;29;20055;-95
2021/11/02 12:59:29;;;;;;;2.28;0.45;;;;;;;21.25;44.25;98837.13;4927300;29;20127;-95
2021/11/02 13:01:58;;;;;;;5.60;0.50;;;;;;;21.12;43.92;98832.66;4939182;29;20036;-95
2021/11/02 13:04:33;;;;;;;4.53;0.70;;;;;;;21.02;44.10;98826.13;4925179;29;20028;-96
2021/11/02 13:06:59;;;;;;;1.23;0.35;;;;;;;20.82;43.20;98837.69;4922893;29;20032;-96
2021/11/02 13:09:33;;;;;;;1.80;0.43;;;;;;;20.78;44.62;98837.28;4924889;29;20035;-96
2021/11/02 13:12:08;;;;;;;1.98;0.40;;;;;;;20.79;43.54;98827.41;4937629;29;20506;-95
2021/11/02 13:15:04;;;;;;;2.13;0.55;;;;;;;20.26;43.97;98830.13;4938730;29;20100;-94
2021/11/02 13:17:40;;;;;;;2.22;0.38;;;;;;;20.04;45.90;98825.00;4904794;29;20040;-95
2021/11/02 13:20:07;;;;;;;2.70;0.60;;;;;;;20.06;45.56;98827.47;4931159;29;20064;-96
2021/11/02 13:22:33;;;;;;;4.88;0.70;;;;;;;19.84;46.26;98819.66;4940811;29;20389;-96
2021/11/02 13:25:12;;;;;;;3.45;0.50;;;;;;;19.50;46.09;98817.94;4940827;29;20080;-95
2021/11/02 13:27:39;;;;;;;5.47;0.70;;;;;;;19.25;46.13;98813.13;4933721;29;20060;-94
2021/11/02 13:30:24;;;;;;;1.42;0.32;;;;;;;19.30;47.14;98816.03;4928281;29;20043;-93
2021/11/02 13:33:03;;;;;;;1.58;0.45;;;;;;;19.21;47.68;98809.22;4934224;29;20024;-93
2021/11/02 13:36:00;;;;;;;3.33;0.40;;;;;;;19.16;47.78;98824.97;4926202;29;20028;-94
2021/11/02 13:38:38;;;;;;;2.38;0.40;;;;;;;19.42;47.83;98819.75;4922809;29;20067;-93
2021/11/02 13:41:29;;;;;;;2.70;0.65;;;;;;;19.42;47.75;98817.06;4926020;29;20067;-93
2021/11/02 13:43:56;;;;;;;1.83;0.55;;;;;;;19.39;47.79;98828.13;4917982;29;20047;-94
2021/11/02 13:46:25;;;;;;;2.22;0.50;;;;;;;19.37;48.42;98822.19;4937780;29;20031;-94
2021/11/02 13:48:52;;;;;;;2.97;0.50;;;;;;;19.07;47.70;98826.16;4922257;29;20042;-94
2021/11/02 13:51:19;;;;;;;3.53;0.70;;;;;;;18.97;48.89;98821.19;4937599;29;20387;-95
2021/11/02 13:53:45;;;;;;;1.63;0.50;;;;;;;18.92;49.11;98821.81;4919844;29;20071;-94
2021/11/02 13:56:12;;;;;;;4.43;0.50;;;;;;;18.73;49.47;98817.97;4933954;29;20028;-94
2021/11/02 13:58:38;;;;;;;7.88;1.90;;;;;;;18.83;49.08;98815.81;4939190;29;20027;-94
2021/11/02 14:01:10;;;;;;;1.00;0.30;;;;;;;18.82;50.19;98808.06;4938698;29;20032;-94
2021/11/02 14:03:43;;;;;;;5.13;1.63;;;;;;;18.69;49.33;98811.41;4926844;29;20032;-94
2021/11/02 14:06:10;;;;;;;2.20;0.40;;;;;;;18.85;49.67;98804.97;4940059;29;20040;-95
2021/11/02 14:08:36;;;;;;;2.22;0.40;;;;;;;18.79;48.84;98809.25;4928424;29;20517;-96
2021/11/02 14:11:02;;;;;;;4.45;0.47;;;;;;;18.81;48.47;98803.75;4921580;29;20028;-96
2021/11/02 14:13:46;;;;;;;3.53;0.60;;;;;;;18.84;49.58;98800.69;4924451;29;20054;-96
2021/11/02 14:16:26;;;;;;;8.07;0.80;;;;;;;18.45;50.59;98810.03;4937591;29;20044;-96
2021/11/02 14:18:51;;;;;;;4.57;0.73;;;;;;;18.43;50.59;98806.75;4937795;29;20034;-96
2021/11/02 14:21:50;;;;;;;2.97;0.63;;;;;;;18.17;50.44;98808.22;4937511;29;20024;-96
2021/11/02 14:24:30;;;;;;;2.65;0.65;;;;;;;18.14;50.85;98805.91;4921221;29;20359;-96
2021/11/02 14:26:56;;;;;;;6.13;0.95;;;;;;;18.09;52.33;98805.69;4918938;29;20399;-93
2021/11/02 14:29:45;;;;;;;2.00;0.22;;;;;;;17.87;50.44;98804.91;4934915;29;20020;-94
2021/11/02 14:32:11;;;;;;;4.28;0.30;;;;;;;17.74;51.28;98805.56;4937067;29;20039;-94
2021/11/02 14:34:36;;;;;;;2.08;0.43;;;;;;;17.72;52.22;98810.22;4908194;29;20036;-95
2021/11/02 14:37:19;;;;;;;2.47;0.47;;;;;;;17.65;52.41;98806.69;4929337;29;20027;-95
2021/11/02 14:39:59;;;;;;;2.30;0.40;;;;;;;17.64;52.81;98799.75;4918332;29;20032;-95
2021/11/02 14:42:47;;;;;;;3.40;0.80;;;;;;;17.52;52.29;98790.66;4925874;29;20032;-95
2021/11/02 14:45:15;;;;;;;3.55;0.52;;;;;;;17.36;53.59;98805.78;4918832;29;20108;-96
2021/11/02 14:47:41;;;;;;;8.50;0.57;;;;;;;17.24;52.10;98802.78;4918805;29;20032;-95
2021/11/02 14:50:36;;;;;;;3.03;0.60;;;;;;;17.30;54.62;98806.53;4927474;29;20028;-95
2021/11/02 14:53:35;;;;;;;5.82;0.70;;;;;;;17.11;53.40;98817.72;4931515;29;20357;-96
2021/11/02 14:56:14;;;;;;;2.90;0.50;;;;;;;16.92;54.22;98821.75;4934102;29;20035;-95
2021/11/02 14:58:40;;;;;;;4.00;0.60;;;;;;;16.77;53.49;98817.25;4940320;29;20036;-95
2021/11/02 15:01:11;;;;;;;4.38;0.65;;;;;;;16.69;54.38;98816.53;4937513;29;20052;-95
2021/11/02 15:03:57;;;;;;;2.35;0.65;;;;;;;16.61;53.81;98810.31;4937427;29;20027;-95
2021/11/02 15:06:35;;;;;;;2.67;1.23;;;;;;;16.52;54.46;98819.34;4930634;29;20032;-96
2021/11/02 15:09:06;;;;;;;3.42;0.75;;;;;;;16.24;55.12;98819.94;4922224;29;20024;-95
2021/11/02 15:11:32;;;;;;;3.75;0.40;;;;;;;16.44;55.83;98822.06;4930146;29;20027;-94
2021/11/02 15:14:02;;;;;;;3.85;0.60;;;;;;;16.41;55.34;98814.47;4953853;29;20039;-92
2021/11/02 15:16:28;;;;;;;1.40;0.65;;;;;;;16.36;54.65;98817.69;4928836;29;20766;-94
2021/11/02 15:19:00;;;;;;;1.88;0.43;;;;;;;16.35;54.86;98821.34;4936860;29;20332;-95
2021/11/02 15:21:40;;;;;;;1.63;0.52;;;;;;;16.24;54.23;98819.94;4921626;29;20478;-94
2021/11/02 15:24:17;;;;;;;0.98;0.30;;;;;;;16.21;54.67;98825.59;4935088;29;20039;-94
2021/11/02 15:26:54;;;;;;;2.05;0.40;;;;;;;15.98;53.12;98822.97;4935851;29;20078;-96
2021/11/02 15:29:21;;;;;;;1.83;0.40;;;;;;;16.01;54.05;98824.44;4936326;29;20066;-94
2021/11/02 15:31:56;;;;;;;1.35;0.30;;;;;;;15.91;53.65;98827.31;4935049;29;20426;-95
2021/11/02 15:34:21;;;;;;;0.93;0.43;;;;;;;15.93;55.04;98829.81;4935662;29;20371;-94
2021/11/02 15:36:46;;;;;;;3.22;0.43;;;;;;;15.88;55.17;98826.84;4936197;29;20036;-95
2021/11/02 15:39:12;;;;;;;2.72;0.43;;;;;;;15.83;56.01;98833.50;4934537;29;20103;-95
2021/11/02 15:41:38;;;;;;;1.20;0.30;;;;;;;15.73;54.98;98830.28;4936187;29;20024;-95
2021/11/02 15:44:09;;;;;;;0.98;0.40;;;;;;;15.70;55.44;98832.41;4934778;29;20028;-95
2021/11/02 15:46:40;;;;;;;0.30;0.30;;;;;;;15.66;55.28;98840.72;4917913;29;20064;-95
2021/11/02 15:49:08;;;;;;;5.03;0.50;;;;;;;15.62;55.40;98836.78;4922295;29;20035;-94
2021/11/02 15:51:39;;;;;;;1.08;0.20;;;;;;;15.62;56.08;98838.56;4936284;29;20024;-94
2021/11/02 15:54:13;;;;;;;1.10;0.50;;;;;;;15.61;56.11;98839.59;4934771;29;20105;-94
2021/11/02 15:56:40;;;;;;;1.48;0.40;;;;;;;15.59;57.10;98842.41;4936236;29;20438;-94
2021/11/02 15:59:07;;;;;;;2.30;0.45;;;;;;;15.58;57.22;98842.56;4935998;29;20120;-95
2021/11/02 16:01:50;;;;;;;2.63;0.60;;;;;;;15.55;56.96;98848.22;4928176;29;20437;-94
2021/11/02 16:04:23;;;;;;;3.53;1.00;;;;;;;15.45;56.65;98840.50;4929601;29;20474;-95
2021/11/02 16:07:07;;;;;;;3.35;0.70;;;;;;;15.45;57.12;98845.81;4916780;29;20119;-92
2021/11/02 16:09:45;;;;;;;2.92;0.65;;;;;;;15.43;57.54;98843.31;4916801;29;20036;-91
2021/11/02 16:12:32;;;;;;;5.53;0.47;;;;;;;15.37;57.59;98844.03;4930596;29;20036;-92
2021/11/02 16:15:03;;;;;;;0.60;0.60;;;;;;;15.41;57.81;98845.31;4935363;29;20036;-92
2021/11/02 16:18:02;;;;;;;0.70;0.32;;;;;;;15.42;58.18;98849.63;4935742;29;20056;-95
2021/11/02 16:20:39;;;;;;;1.13;0.35;;;;;;;15.39;58.44;98836.72;4920707;29;20048;-94
2021/11/02 16:23:07;;;;;;;2.67;0.50;;;;;;;15.32;58.71;98843.69;4926575;29;20058;-94
2021/11/02 16:25:38;;;;;;;2.60;0.40;;;;;;;15.27;58.50;98846.06;4928842;29;20401;-94
2021/11/02 16:28:14;;;;;;;0.75;0.32;;;;;;;15.20;58.99;98845.91;4930875;29;20035;-93
2021/11/02 16:30:48;;;;;;;1.13;0.50;;;;;;;15.01;59.10;98844.50;4927313;29;20052;-94
2021/11/02 16:33:15;;;;;;;6.28;0.90;;;;;;;14.83;58.94;98850.03;4931959;29;20270;-94
2021/11/02 16:35:54;;;;;;;7.05;1.10;;;;;;;14.73;59.37;98853.84;4930205;29;20031;-95
2021/11/02 16:38:36;;;;;;;3.83;0.60;;;;;;;14.66;59.96;98858.97;4930365;29;20032;-93
2021/11/02 16:41:07;;;;;;;2.30;0.70;;;;;;;14.52;59.57;98857.00;4927936;29;20359;-94
2021/11/02 16:43:34;;;;;;;1.92;0.55;;;;;;;14.37;60.01;98864.75;4934310;29;20032;-94
2021/11/02 16:46:01;;;;;;;0.32;0.30;;;;;;;14.24;60.03;98868.75;4935230;29;20110;-94
2021/11/02 16:48:45;;;;;;;3.22;0.40;;;;;;;14.14;60.25;98865.44;4934810;29;20108;-94
2021/11/02 16:51:14;;;;;;;2.10;0.47;;;;;;;14.02;60.19;98862.31;4921355;29;20028;-93
2021/11/02 16:53:40;;;;;;;4.25;0.70;;;;;;;13.90;60.71;98858.31;4918061;29;20051;-93
2021/11/02 16:56:19;;;;;;;2.97;0.52;;;;;;;13.80;60.26;98858.50;4933770;29;20031;-94
2021/11/02 16:58:47;;;;;;;0.75;0.45;;;;;;;13.71;60.79;98864.75;4934889;29;20047;-94
2021/11/02 17:01:35;;;;;;;1.45;0.60;;;;;;;13.63;60.84;98877.91;4934944;29;20512;-94
2021/11/02 17:04:18;;;;;;;0.82;0.52;;;;;;;13.47;60.41;98871.59;4918520;29;20040;-92
2021/11/02 17:06:44;;;;;;;1.65;0.40;;;;;;;13.40;60.74;98877.66;4915756;29;20078;-94
2021/11/02 17:09:13;;;;;;;1.38;0.50;;;;;;;13.33;60.84;98882.75;4921388;29;20031;-95